Cyr Plt, Maine
Current Conditions -  °F | °C
As of 4:14 PM on Saturday 25 Oct 2014 (Local Time) from KCAR Reporting Station
Overcast Overcast  
Wind Chill: 43°   Ceiling: 5000
Heat Index: 45°   Visibility: 10mi
Dew Point: 40°   Wind: 5mph
Humidity: 82%   Direction: 40°NE
Pressure: 29.56"   Gusts: NA
Location:  47.123°N, 67.9773°W
Report Text: KCAR 252014Z AUTO 04004KT 10SM FEW011 SCT017 OVC050 07/04 A2956 RMK AO2 T00720044 $
Loading
Personal Weather Stations






























Interactive Weather Map
Tropical Storm Tracking
New forecast layout! Learn more

10-Day Weather Forecast

Advertisements
Track Severe Weather on mobile